首页
METAR-TAF:

METAR-TAF

机场 :

奥朗日, 法国

纬度: 44-08N, 经度: 004-50E, 海拔: 60米

当前天气观测

该预报发布于32分钟前的20:30 UTC
风速4节,风向北转西北
温度 5°C
湿度 87%
气压 1021 hPa
能见度10公里或以上

METAR: LFMO 292030Z AUTO 33004KT 9999 ////// 05/03 Q1021

时间: 22:02 (21:02 UTC)

预报

该预报发布于1小时和2分钟前的20:00 UTC
预报有效从29日的 21点(UTC)到 30日的 21点(UTC)
风速2节,风向多变
能见度10公里或以上
1500米以下无云,无积雨云
短暂存在
从 29日的 23点(UTC)到 30日的 08点(UTC)
能見度: 3000
轻雾

TAF: LFMO 292000Z 2921/3021 VRB02KT CAVOK TEMPO 2923/3008 3000 BR

超过4000个机场的气象观测和天气预报(METAR&TAF报告)。

可查询的气象台以黄色和红色小点在地图上表示。

将鼠标移到小点上方,可查看气象台名称。

然后点击查看天气观测和预报。

如需切换地图:点击带黑十字的绿色按钮放大地图;点击带横线的绿色按钮缩小地图;或者点击绿色箭头查看邻近地区的地图。


METAR-TAF: